Epworth, Georgia
Current Conditions -  °F | °C
As of 9:55 PM on Wednesday 26 Nov 2014 (Local Time) from KRZR Reporting Station
Broken Clouds Broken Clouds  
Wind Chill: 38°   Ceiling: 4000
Heat Index: 45°   Visibility: 10mi
Dew Point: 34°   Wind: 13mph
Humidity: 66%   Direction: 220°SW
Pressure: 30.04"   Gusts: NA
Location:  34.95°N, 84.38°W
Report Text: KRZR 270255Z AUTO 22011KT 10SM SCT027 SCT033 BKN040 07/01 A3004 RMK
Loading
Personal Weather Stations






























Interactive Weather Map New forecast layout! Learn more

10-Day Weather Forecast

Advertisements
Track Severe Weather on mobile